Beverly Hills, CA

10:55 PM PST on December 20, 2014 (GMT -0800)
Los Angeles International | Change Station
CLOSE
Current Station
Airport
Location: Los Angeles,
Elevation: 105 ft
Nearby Weather Stations
Active Advisory: High Surf Advisory Active Notice: Public Information Statement

Elev 105 ft 33.94 °N, 118.39 °W | Updated 2 minutes ago

Partly Cloudy
Partly Cloudy
57 °F
Feels Like 57 °F
N
6
Wind Variable Wind from ENE

Today
High -- | Low -- °F
--% Chance of Precip.
Yesterday
High -- | Low -- °F
Precip. -- in
6:54 AM 4:47 PM
Waning Crescent, 1% visible
Pressure 30.16 in
Visibility 10.0 miles
Clouds Scattered Clouds 1700 ft
Scattered Clouds 20000 ft
Dew Point 49 °F
Humidity 74%
Rainfall 0.00 in
Snow Depth Not available.
UV 0 out of 12
Pollen 4.00 out of 12
Air Quality Not available.
Flu Activity Not available.
METAR KLAX 210653Z 07005KT 10SM SCT017 SCT200 14/09 A3016 RMK AO2 SLP211 T01390094

More Conditions Fewer Conditions

Pressure 30.16 in
Visibility 10.0 miles
Clouds Scattered Clouds 1700 ft
Scattered Clouds 20000 ft
Dew Point 49 °F
Humidity 74%
Rainfall 0.00 in
Snow Depth Not available.
UV 0 out of 12
Pollen 4.00 out of 12
Air Quality Not available.
Flu Activity Not available.
METAR KLAX 210653Z 07005KT 10SM SCT017 SCT200 14/09 A3016 RMK AO2 SLP211 T01390094

More Conditions Fewer Conditions

10-Day Weather Forecast

Almanac

Astronomy

Dec. 20, 2014 Rise Set
Actual Time
Civil Twilight
Nautical Twilight
Astronomical Twilight
Moon
Length of Visible Light
Length of Day
Tomorrow will be .
, % of the Moon is Illuminated

Today's Extremes

State Highs State Lows

Community

WunderPhotos

Upload Photos

1,779,360 photos uploaded!

WunderBlogs® & News

Nearby

Air Quality

  Air Quality AQ Index Pollutant
Not available.

Snow Depth

Station Depth Elevation

Earthquake Activity

City Distance Mag. Time & Date
Minimum magnitude displayed is 2.5.

Coastal Water Temperatures

Place Temperature

Nearby Weather Stations